createdAt,value
2023-06-10T00:04:47.928Z,11.3
2023-06-10T00:09:54.006Z,11.2
2023-06-10T00:15:00.047Z,11.2
2023-06-10T00:20:06.208Z,11.1
2023-06-10T00:25:12.513Z,10.9
2023-06-10T00:30:18.365Z,11
2023-06-10T00:35:24.458Z,10.9
2023-06-10T00:40:30.616Z,11.1
2023-06-10T00:45:36.812Z,11.3
2023-06-10T00:50:42.748Z,11.2
2023-06-10T00:55:49.082Z,11.2
2023-06-10T01:00:54.962Z,11.3
2023-06-10T01:06:01.047Z,11.3
2023-06-10T01:11:07.129Z,11.3
2023-06-10T01:16:13.198Z,11.3
2023-06-10T01:21:19.308Z,11.2
2023-06-10T01:26:31.086Z,11.2
2023-06-10T01:31:37.213Z,11.3
2023-06-10T01:36:43.477Z,11.2
2023-06-10T01:41:49.361Z,11.1
2023-06-10T01:46:55.457Z,11.3
2023-06-10T01:52:01.508Z,11.2
2023-06-10T01:57:07.623Z,11.2
2023-06-10T02:02:13.720Z,11
2023-06-10T02:07:19.817Z,10.9
2023-06-10T02:12:26.060Z,11
2023-06-10T02:17:32.009Z,11.1
2023-06-10T02:22:38.085Z,11.2
2023-06-10T02:27:44.176Z,11.1
2023-06-10T02:32:50.289Z,11.1
2023-06-10T02:37:56.355Z,11.1
2023-06-10T02:43:02.444Z,11.1
2023-06-10T02:48:08.573Z,11.1
2023-06-10T02:53:14.656Z,11
2023-06-10T02:58:20.765Z,11.1
2023-06-10T03:03:32.487Z,11.1
2023-06-10T03:08:38.603Z,10.9
2023-06-10T03:13:44.787Z,10.7
2023-06-10T03:18:50.801Z,10.4
2023-06-10T03:23:57.010Z,10.5
2023-06-10T03:29:03.155Z,10.4
2023-06-10T03:34:09.060Z,10.2
2023-06-10T03:39:15.264Z,10
2023-06-10T03:44:21.360Z,10
2023-06-10T03:49:27.337Z,10.1
2023-06-10T03:54:33.438Z,10.1
2023-06-10T03:59:39.506Z,9.9
2023-06-10T04:04:45.625Z,9.9
2023-06-10T04:09:51.716Z,9.9
2023-06-10T04:14:57.783Z,10.1
2023-06-10T04:20:03.900Z,10.1
2023-06-10T04:25:10.189Z,10.1
2023-06-10T04:30:16.205Z,10.1
2023-06-10T04:35:22.189Z,10.3
2023-06-10T04:40:33.925Z,10.6
2023-06-10T04:45:40.006Z,10.7
2023-06-10T04:50:46.113Z,10.7
2023-06-10T04:55:52.191Z,10.9
2023-06-10T05:00:58.274Z,10.8
2023-06-10T05:06:04.374Z,10.9
2023-06-10T05:11:10.492Z,10.9
2023-06-10T05:16:16.570Z,10.9
2023-06-10T05:21:22.693Z,11.1
2023-06-10T05:26:28.766Z,11.1
2023-06-10T05:31:35.096Z,11.1
2023-06-10T05:36:40.938Z,11
2023-06-10T05:41:47.050Z,10.9
2023-06-10T05:46:53.298Z,11
2023-06-10T05:51:59.449Z,11.1
2023-06-10T05:57:05.330Z,11.1
2023-06-10T06:02:11.456Z,11.1
2023-06-10T06:07:17.525Z,11.3
2023-06-10T06:12:23.658Z,11.5
2023-06-10T06:17:46.500Z,11.3
2023-06-10T06:22:52.583Z,11.3
2023-06-10T06:27:58.731Z,11.2
2023-06-10T06:33:04.881Z,11.2
2023-06-10T06:38:10.885Z,11
2023-06-10T06:43:16.988Z,11.2
2023-06-10T06:48:23.127Z,11.3
2023-06-10T06:53:31.816Z,11.5
2023-06-10T06:58:35.251Z,11.7
2023-06-10T07:03:41.572Z,11.5
2023-06-10T07:08:47.468Z,11.2
2023-06-10T07:13:53.562Z,11.4
2023-06-10T07:18:59.653Z,11.2
2023-06-10T07:24:05.762Z,11
2023-06-10T07:29:11.822Z,11.1
2023-06-10T07:34:18.034Z,11
2023-06-10T07:39:24.016Z,11.1
2023-06-10T07:44:30.131Z,10.9
2023-06-10T07:49:36.342Z,10.9
2023-06-10T07:54:48.122Z,10.7
2023-06-10T07:59:54.062Z,10.9
2023-06-10T08:05:00.193Z,11.2
2023-06-10T08:10:06.283Z,11.2
2023-06-10T08:15:12.459Z,11.2
2023-06-10T08:20:18.402Z,11.1
2023-06-10T08:25:24.657Z,11
2023-06-10T08:30:30.596Z,11
2023-06-10T08:35:36.694Z,11.5
2023-06-10T08:40:42.791Z,11.5
2023-06-10T08:45:48.871Z,11.4
2023-06-10T08:50:54.994Z,11.7
2023-06-10T08:56:01.076Z,12.1
2023-06-10T09:01:07.310Z,12.3
2023-06-10T09:06:13.279Z,12.3
2023-06-10T09:11:19.333Z,12.3
2023-06-10T09:16:25.519Z,12.5
2023-06-10T09:21:37.200Z,12.9
2023-06-10T09:26:48.897Z,13.2
2023-06-10T09:31:55.341Z,13.3
2023-06-10T09:37:01.101Z,13
2023-06-10T09:42:07.261Z,12.6
2023-06-10T09:47:13.316Z,12.2
2023-06-10T09:52:19.420Z,11.9
2023-06-10T09:57:25.514Z,12.8
2023-06-10T10:02:31.769Z,13.5
2023-06-10T10:07:37.727Z,14.1
2023-06-10T10:12:43.787Z,14.9
2023-06-10T10:17:49.936Z,14.8
2023-06-10T10:22:55.985Z,15
2023-06-10T10:28:02.146Z,14.1
2023-06-10T10:33:10.494Z,14.7
2023-06-10T10:38:14.264Z,13.8
2023-06-10T10:43:20.356Z,14.3
2023-06-10T10:48:26.481Z,13.6
2023-06-10T10:53:32.556Z,13.9
2023-06-10T10:58:38.628Z,14
2023-06-10T11:03:50.461Z,14.2
2023-06-10T11:08:57.727Z,13.8
2023-06-10T11:14:02.551Z,13.9
2023-06-10T11:19:08.655Z,13.5
2023-06-10T11:24:14.881Z,13.5
2023-06-10T11:29:20.913Z,13.5
2023-06-10T11:34:26.933Z,13.3
2023-06-10T11:39:33.270Z,14.1
2023-06-10T11:44:39.139Z,14.6
2023-06-10T11:49:46.495Z,14.5
2023-06-10T11:54:51.311Z,14.3
2023-06-10T11:59:57.428Z,14.4
2023-06-10T12:05:03.542Z,14.4
2023-06-10T12:10:26.166Z,14.8
2023-06-10T12:15:15.705Z,14.5
2023-06-10T12:20:21.821Z,15.2
2023-06-10T12:25:27.868Z,14.9
2023-06-10T12:30:34.128Z,14.8
2023-06-10T12:35:40.190Z,14.3
2023-06-10T12:40:51.820Z,13.9
2023-06-10T12:45:57.925Z,13.5
2023-06-10T12:51:04.281Z,13.3
2023-06-10T12:56:10.217Z,13.5
2023-06-10T13:01:16.214Z,13.5
2023-06-10T13:06:22.274Z,13.2
2023-06-10T13:11:28.408Z,13.4
2023-06-10T13:16:34.477Z,13.1
2023-06-10T13:21:41.613Z,13
2023-06-10T13:26:46.649Z,12.9
2023-06-10T13:31:52.896Z,13.4
2023-06-10T13:36:58.870Z,13.3
2023-06-10T13:42:04.944Z,13
2023-06-10T13:47:11.341Z,13.5
2023-06-10T13:52:17.142Z,14.1
2023-06-10T13:57:23.228Z,14.3
2023-06-10T14:02:29.343Z,14.7
2023-06-10T14:07:35.415Z,14.5
2023-06-10T14:12:41.516Z,14.5
2023-06-10T14:17:53.258Z,14.7
2023-06-10T14:22:59.344Z,14.7
2023-06-10T14:28:05.434Z,14.2
2023-06-10T14:33:11.566Z,14.2
2023-06-10T14:38:17.634Z,14.6
2023-06-10T14:43:23.738Z,14.4
2023-06-10T14:48:29.824Z,14.4
2023-06-10T14:53:35.902Z,14.8
2023-06-10T14:58:42.003Z,14.9
2023-06-10T15:03:48.145Z,14.5
2023-06-10T15:08:54.418Z,14.8
2023-06-10T15:14:00.404Z,14.8
2023-06-10T15:19:06.395Z,14.5
2023-06-10T15:24:12.584Z,14.4
2023-06-10T15:29:18.585Z,14.6
2023-06-10T15:34:24.674Z,15
2023-06-10T15:39:30.788Z,15.1
2023-06-10T15:44:36.865Z,15.2
2023-06-10T15:49:42.954Z,14.3
2023-06-10T15:55:00.296Z,13.7
2023-06-10T16:00:06.417Z,13.9
2023-06-10T16:05:12.679Z,14.5
2023-06-10T16:10:18.573Z,14.7
2023-06-10T16:15:24.795Z,14.5
2023-06-10T16:20:30.754Z,14.3
2023-06-10T16:25:36.868Z,13.7
2023-06-10T16:30:42.927Z,13.3
2023-06-10T16:35:49.048Z,13.2
2023-06-10T16:40:55.136Z,13.1
2023-06-10T16:46:01.344Z,12.9
2023-06-10T16:51:07.333Z,13
2023-06-10T16:56:13.524Z,13
2023-06-10T17:01:19.527Z,12.9
2023-06-10T17:06:25.618Z,12.9
2023-06-10T17:11:31.715Z,12.8
2023-06-10T17:16:37.869Z,12.5
2023-06-10T17:21:44.071Z,12.2
2023-06-10T17:26:49.975Z,12
2023-06-10T17:32:07.318Z,11.8
2023-06-10T17:37:13.409Z,11.6
2023-06-10T17:42:19.487Z,11.6
2023-06-10T17:47:25.607Z,11.6
2023-06-10T17:52:31.690Z,11.7
2023-06-10T17:57:37.769Z,11.7
2023-06-10T18:02:43.884Z,11.7
2023-06-10T18:07:49.959Z,11.6
2023-06-10T18:12:56.058Z,11.5
2023-06-10T18:18:02.205Z,11.4
2023-06-10T18:23:08.265Z,11.6
2023-06-10T18:28:14.356Z,11.4
2023-06-10T18:33:20.538Z,11.2
2023-06-10T18:38:26.512Z,11.2
2023-06-10T18:43:32.606Z,11
2023-06-10T18:48:38.738Z,10.9
2023-06-10T18:53:45.118Z,11
2023-06-10T18:58:51.004Z,10.9
2023-06-10T19:03:57.014Z,10.7
2023-06-10T19:09:08.859Z,10.6
2023-06-10T19:14:14.844Z,10.6
2023-06-10T19:19:21.285Z,10.7
2023-06-10T19:24:27.131Z,10.6
2023-06-10T19:29:33.122Z,10.5
2023-06-10T19:34:39.379Z,10.7
2023-06-10T19:39:45.519Z,10.8
2023-06-10T19:44:51.410Z,10.5
2023-06-10T19:49:57.488Z,10.6
2023-06-10T19:55:03.614Z,10.6
2023-06-10T20:00:10.076Z,10.8
2023-06-10T20:05:16.113Z,10.5
2023-06-10T20:10:21.867Z,10.4
2023-06-10T20:15:27.965Z,10.6
2023-06-10T20:20:34.158Z,10.7
2023-06-10T20:25:40.201Z,10.6
2023-06-10T20:30:46.257Z,10.7
2023-06-10T20:35:52.336Z,10.9
2023-06-10T20:40:58.432Z,11.1
2023-06-10T20:46:10.477Z,11.1
2023-06-10T20:51:16.247Z,11.1
2023-06-10T20:56:22.367Z,11.1
2023-06-10T21:01:28.560Z,11.2
2023-06-10T21:11:40.745Z,11
2023-06-10T21:16:46.781Z,10.9
2023-06-10T21:21:52.924Z,10.6
2023-06-10T21:26:58.949Z,10.6
2023-06-10T21:32:05.044Z,10.5
2023-06-10T21:37:11.141Z,10.3
2023-06-10T21:42:17.232Z,10.3
2023-06-10T21:47:23.305Z,10.2
2023-06-10T21:52:29.416Z,10.2
2023-06-10T21:57:35.498Z,10.1
2023-06-10T22:02:41.754Z,10.1
2023-06-10T22:07:47.671Z,10.2
2023-06-10T22:12:53.770Z,10.2
2023-06-10T22:17:59.905Z,10.2
2023-06-10T22:23:05.965Z,10.1
2023-06-10T22:28:17.682Z,10
2023-06-10T22:33:23.794Z,10
2023-06-10T22:38:29.869Z,9.9
2023-06-10T22:43:35.973Z,10
2023-06-10T22:48:42.122Z,9.9
2023-06-10T22:53:48.160Z,9.9
2023-06-10T22:58:54.255Z,10.2
2023-06-10T23:04:00.441Z,10.4
2023-06-10T23:09:06.461Z,10.2
2023-06-10T23:14:12.562Z,10
2023-06-10T23:19:18.658Z,9.7
2023-06-10T23:24:24.780Z,9.7
2023-06-10T23:29:30.819Z,9.7
2023-06-10T23:34:36.949Z,9.8
2023-06-10T23:39:43.293Z,9.8
2023-06-10T23:44:49.122Z,9.7
2023-06-10T23:49:55.207Z,9.5
2023-06-10T23:55:01.352Z,9.5
